KSBA/SBA METAR and TAF weather

Enter ICAO airport designator
Station Type Date Time Source
KSBA METAR 2020/04/07 06:53 UTC NOAA

KSBA 070653Z 00000KT 10SM SCT060 09/06 A3004 RMK AO2 SLP171 T00890056


Station Type Date Time Source
KSBA Decoded METAR 2020/04/07 06:53 UTC NOAA

SANTA BARBARA MUNICIPAL, CA, United States (KSBA) 34-26N 119-51W 3M
Apr 07, 2020 - 02:53 AM EDT / 2020.04.07 0653 UTC
Wind: Calm:0
Visibility: 10 mile(s):0
Sky conditions: partly cloudy
Temperature: 48.0 F (8.9 C)
Dew Point: 42.1 F (5.6 C)
Relative Humidity: 79%
Pressure (altimeter): 30.04 in. Hg (1017 hPa)
ob: KSBA 070653Z 00000KT 10SM SCT060 09/06 A3004 RMK AO2 SLP171 T00890056
cycle: 7

Station Type Date Time Source
KSBA TAF 2020/04/07 06:42 UTC NOAA

TAF KSBA 070540Z 0706/0806 VRB03KT P6SM SCT050
FM071200 VRB03KT P6SM BKN040
FM071800 16006KT P6SM VCSH BKN035
FM072100 25008KT P6SM -SHRA OVC030
FM080300 VRB03KT P6SM VCSH BKN040

Example: see airport list